Date,TemperatureHighF,TemperatureAvgF,TemperatureLowF,DewpointHighF,DewpointAvgF,DewpointLowF,HumidityHigh,HumidityAvg,HumidityLow,PressureMaxIn,PressureMinIn,WindSpeedMaxMPH,WindSpeedAvgMPH,GustSpeedMaxMPH,PrecipitationSumIn
2013-1-1,34.9,26.8,13.7,29.1,19.4,9.0,83,74,66,30.00,29.78,18,6,29,0.00
2013-1-2,26.4,17.0,3.9,19.5,11.0,-2.0,88,77,66,30.24,29.98,17,4,28,0.00
2013-1-3,20.9,7.8,-4.7,14.5,1.4,-7.8,87,75,59,30.27,30.01,4,1,9,0.00
2013-1-4,39.6,31.1,20.9,26.1,21.9,14.5,84,69,55,30.01,29.86,17,5,24,0.09
2013-1-5,37.4,32.9,25.7,27.7,24.0,19.5,78,70,55,30.27,29.93,22,7,34,0.05
2013-1-6,43.5,33.9,26.0,31.5,27.4,20.0,92,77,61,30.20,29.92,8,2,15,0.13
2013-1-7,37.3,30.2,21.5,32.6,24.7,18.0,88,80,65,30.40,30.00,15,3,26,0.02
2013-1-8,43.3,33.2,24.7,30.8,26.2,20.0,92,76,60,30.38,30.27,7,2,14,0.03
2013-1-9,43.8,35.6,26.3,34.7,29.0,23.8,91,77,53,30.37,30.01,26,4,39,0.00
2013-1-10,43.3,37.2,29.2,31.5,27.9,24.7,83,69,57,30.57,30.14,28,8,38,0.00
2013-1-11,39.7,33.1,26.6,38.9,29.3,23.5,97,86,66,30.55,30.09,6,2,14,0.15
2013-1-12,46.5,42.3,39.7,44.8,41.3,38.9,98,96,92,30.16,30.09,6,1,14,0.01
2013-1-13,48.8,44.6,40.5,48.2,44.0,40.0,99,98,96,30.14,29.94,10,2,20,0.01
2013-1-14,47.9,41.5,33.3,47.6,37.1,26.0,99,85,66,30.33,29.83,18,6,29,0.03
2013-1-15,37.9,31.8,28.2,28.2,25.0,22.8,86,76,62,30.37,30.24,10,2,16,0.00
2013-1-16,31.6,30.2,28.2,30.7,28.4,23.4,97,93,76,30.25,29.83,2,0,4,0.01
2013-1-17,36.4,29.9,22.0,33.9,24.8,12.8,97,82,65,30.17,29.86,15,4,24,0.13
2013-1-18,24.3,18.3,9.9,14.3,8.3,0.9,83,65,45,30.44,30.10,15,3,21,0.00
2013-1-19,44.0,34.9,24.2,30.2,23.2,13.4,70,62,53,30.28,29.78,12,5,29,0.16
2013-1-20,45.3,35.9,21.1,35.3,24.9,13.0,85,65,38,30.03,29.57,22,8,34,0.02
2013-1-21,26.3,21.7,17.4,19.9,14.7,10.6,90,75,55,30.08,29.81,12,1,20,0.00
2013-1-22,20.5,15.1,6.9,17.2,6.2,-1.7,89,69,43,30.14,29.80,23,7,28,0.00
2013-1-23,12.3,5.8,1.1,2.8,-2.0,-5.9,81,70,54,30.23,30.13,19,5,26,0.00
2013-1-24,16.7,6.5,-2.8,4.3,-1.8,-7.1,84,70,47,30.40,30.18,20,6,32,0.00
2013-1-25,18.0,11.4,3.8,11.2,3.3,-2.1,88,70,52,30.44,30.09,15,3,25,0.00
2013-1-26,24.4,13.1,6.6,10.6,6.8,4.0,90,77,53,30.36,30.08,12,3,20,0.01
2013-1-27,29.1,16.9,7.0,9.8,5.2,1.4,89,63,34,30.54,30.35,10,2,15,0.02
2013-1-28,32.1,25.1,15.9,31.1,19.8,4.7,96,81,59,30.50,29.96,6,1,14,0.00
2013-1-29,38.7,32.9,26.5,37.9,31.9,25.5,97,96,93,30.16,29.98,6,1,17,0.42
2013-1-30,56.6,50.0,38.7,56.0,49.3,37.9,99,97,94,30.03,29.31,14,6,29,0.29
2013-1-31,54.4,39.4,25.0,54.1,33.6,16.1,99,81,53,29.65,28.89,30,12,41,0.78
2013-2-1,27.5,23.3,18.4,19.8,13.6,9.6,83,66,55,30.18,29.65,21,10,33,0.00
2013-2-2,27.8,20.4,11.9,17.5,11.3,6.4,88,68,50,30.24,30.03,15,3,23,0.00
2013-2-3,30.3,22.3,15.8,17.6,15.5,13.2,92,76,53,30.05,29.78,8,1,10,0.00
2013-2-4,26.2,20.8,15.0,18.7,14.2,10.8,88,76,59,29.97,29.78,20,6,31,0.00
2013-2-5,31.6,22.7,16.5,21.3,15.1,12.8,86,73,53,30.03,29.90,5,0,10,0.00
2013-2-6,35.1,26.7,18.1,26.7,18.3,6.4,94,72,40,30.38,29.90,21,6,29,0.00
2013-2-7,29.2,20.2,12.4,13.0,9.4,7.4,83,64,44,30.56,30.38,5,1,12,0.00
2013-2-8,30.0,26.4,22.4,25.5,21.2,12.7,94,81,58,30.38,29.81,11,3,20,0.00
2013-2-9,27.9,18.7,9.4,21.7,12.0,2.1,100,76,49,30.38,29.84,16,6,28,0.24
2013-2-10,31.1,18.4,5.4,14.4,5.6,-1.1,76,58,40,30.53,30.27,5,1,9,0.12
2013-2-11,43.3,36.2,28.4,40.2,30.6,9.7,96,82,43,30.27,29.66,14,4,26,0.14
2013-2-12,37.5,35.8,32.8,33.3,29.1,25.4,94,77,69,29.95,29.70,22,7,32,0.00
2013-2-13,41.4,34.2,31.6,27.0,24.8,22.7,82,69,51,29.91,29.73,11,2,16,0.00
2013-2-14,41.8,32.9,25.5,28.4,24.7,21.1,86,72,56,29.95,29.72,14,2,17,0.00
2013-2-15,48.5,39.5,31.4,32.9,29.1,25.8,92,67,50,30.02,29.88,11,3,17,0.00
2013-2-16,33.8,28.6,23.2,29.2,21.4,12.8,94,75,55,30.02,29.84,12,4,20,0.05
2013-2-17,24.2,18.8,12.4,13.0,7.7,2.2,74,62,44,29.95,29.67,30,13,41,0.00
2013-2-18,28.1,17.8,8.5,9.8,4.8,0.1,76,57,40,30.23,29.95,21,9,32,0.00
2013-2-19,42.9,33.1,19.7,35.7,24.4,9.5,96,72,54,30.17,29.62,17,3,29,0.19
2013-2-20,30.8,27.2,24.3,29.5,17.8,12.2,95,68,49,29.91,29.67,24,12,36,0.00
2013-2-21,24.6,20.9,18.2,17.4,13.4,10.2,82,72,63,30.40,29.89,23,10,34,0.00
2013-2-22,40.0,28.2,19.3,27.1,21.5,15.5,87,76,58,30.45,30.24,6,1,16,0.00
2013-2-23,38.0,35.2,33.0,35.1,31.2,26.3,94,85,75,30.24,29.87,6,2,16,0.01
2013-2-24,36.9,33.4,30.8,36.4,31.5,27.3,98,93,77,29.98,29.77,12,3,22,0.09
2013-2-25,42.2,34.3,27.0,32.6,28.6,25.2,95,80,64,30.25,29.98,8,1,14,0.01
2013-2-26,45.2,36.2,29.0,32.5,29.3,26.3,94,77,58,30.31,30.03,9,2,20,0.00
2013-2-27,44.5,37.1,32.2,40.8,34.3,27.1,98,90,69,30.03,29.51,16,3,26,0.32
2013-2-28,43.9,37.4,34.5,42.4,35.6,33.2,98,93,81,29.61,29.56,5,1,9,0.19
2013-3-1,38.9,34.1,30.6,37.2,32.4,28.3,100,93,85,29.78,29.60,10,2,17,0.06
2013-3-2,35.2,29.8,25.0,28.3,25.6,22.2,91,84,73,29.78,29.72,13,5,20,0.06
2013-3-3,30.2,25.4,21.6,26.2,21.2,17.2,91,84,76,29.78,29.71,16,6,22,0.01
2013-3-4,29.8,27.2,24.5,24.6,22.5,20.7,90,83,74,29.92,29.77,21,10,33,0.00
2013-3-5,42.8,32.7,27.3,32.8,26.6,22.8,89,78,64,30.09,29.92,11,4,20,0.01
2013-3-6,41.9,34.4,27.1,34.9,29.1,24.8,93,81,69,30.12,30.02,17,4,24,0.00
2013-3-7,38.2,33.2,28.8,31.3,28.2,25.6,96,82,67,30.16,30.09,12,5,20,0.01
2013-3-8,38.6,31.4,28.3,33.6,28.7,25.4,97,90,73,30.30,30.09,16,7,30,0.01
2013-3-9,50.4,36.6,24.6,31.6,26.2,22.2,91,68,42,30.35,30.27,11,3,17,0.36
2013-3-10,53.9,42.4,30.1,33.9,27.7,23.0,77,57,36,30.36,30.20,11,3,20,0.00
2013-3-11,49.3,43.2,36.0,42.8,35.6,30.2,84,75,63,30.24,29.99,9,3,20,0.00
2013-3-12,52.5,47.8,37.3,51.5,45.7,34.9,98,92,84,30.00,29.66,14,5,26,1.03
2013-3-13,47.5,37.6,31.7,34.8,29.4,23.6,91,74,43,29.88,29.78,19,6,28,0.00
2013-3-14,31.9,26.7,23.1,25.8,16.5,10.0,79,65,56,29.92,29.83,26,10,37,0.00
2013-3-15,36.8,28.6,18.7,30.6,20.8,11.5,94,73,53,29.96,29.67,20,5,26,0.00
2013-3-16,36.2,28.7,21.4,26.7,19.6,15.7,89,69,51,29.93,29.77,11,3,18,0.03
2013-3-17,35.4,27.1,18.4,18.3,13.6,8.3,78,58,38,30.34,29.93,20,7,33,0.00
2013-3-18,38.6,27.4,16.4,26.1,12.4,5.8,94,56,29,30.46,30.09,9,1,17,0.00
2013-3-19,34.4,31.2,26.3,33.4,29.1,25.3,97,92,81,30.08,29.71,16,3,26,0.15
2013-3-20,35.8,28.3,22.1,26.0,23.0,20.2,96,81,60,29.83,29.77,17,5,24,0.20
2013-3-21,37.3,28.4,18.6,22.2,17.5,13.7,88,65,42,29.83,29.66,13,3,17,0.18
2013-3-22,34.8,28.0,20.2,27.0,21.0,13.5,89,75,64,29.83,29.70,18,5,24,0.01
2013-3-23,39.6,33.2,28.9,26.9,24.5,22.2,88,71,53,29.90,29.78,25,11,38,0.00
2013-3-24,45.0,35.6,30.3,29.2,25.3,23.6,77,66,50,29.91,29.76,14,5,20,0.00
2013-3-25,45.6,35.7,27.4,32.1,27.4,23.8,87,72,51,29.78,29.52,12,3,15,0.00
2013-3-26,48.7,39.2,33.5,32.0,28.0,22.2,88,66,41,29.85,29.60,11,3,17,0.00
2013-3-27,53.5,40.2,31.9,35.3,29.2,21.8,81,65,45,29.94,29.83,18,5,26,0.00
2013-3-28,47.1,40.5,34.5,37.6,34.1,31.1,93,78,64,30.10,29.93,13,4,17,0.01
2013-3-29,48.9,41.7,34.9,36.4,32.6,30.0,85,71,51,30.13,30.05,18,6,24,0.00
2013-3-30,55.9,44.0,32.0,35.5,28.9,24.2,89,59,33,30.15,30.05,16,4,23,0.00
2013-3-31,56.3,44.4,33.3,40.0,30.3,23.2,94,59,38,30.12,29.70,13,3,24,0.17
2013-4-1,52.4,39.5,29.9,47.6,34.0,18.6,100,82,49,29.88,29.56,28,7,34,0.10
2013-4-2,37.1,30.3,25.0,25.3,20.6,15.5,91,68,46,30.03,29.87,27,10,37,0.01
2013-4-3,39.6,32.0,25.9,24.0,19.7,16.3,89,62,42,30.29,30.01,27,12,34,0.00
2013-4-4,54.7,39.9,27.1,27.4,23.6,19.2,80,55,31,30.37,29.97,11,4,20,0.00
2013-4-5,54.5,43.5,35.6,31.9,26.8,23.2,76,53,33,29.98,29.77,24,8,33,0.00
2013-4-6,48.4,36.9,27.6,29.4,15.8,11.0,80,44,25,30.30,29.98,15,5,24,0.00
2013-4-7,57.7,46.5,35.7,42.1,29.4,13.6,78,53,32,30.25,29.88,21,6,34,0.01
2013-4-8,63.7,51.1,41.1,42.2,38.3,35.8,84,63,40,30.13,29.92,13,3,20,0.00
2013-4-9,61.0,56.6,50.9,50.3,46.0,42.0,80,68,54,30.03,29.82,21,6,30,0.02
2013-4-10,57.6,50.3,45.0,51.9,48.2,43.2,98,93,76,29.99,29.82,7,2,13,0.50
2013-4-11,45.0,39.9,32.7,44.2,35.6,29.2,98,85,63,30.14,29.87,13,5,21,0.09
2013-4-12,40.3,36.0,32.7,37.9,34.6,31.4,98,95,89,30.13,29.78,11,2,25,0.52
2013-4-13,50.3,42.2,36.5,43.4,38.5,36.0,98,87,68,29.95,29.81,11,1,20,0.02
2013-4-14,47.4,41.7,35.2,37.8,32.5,27.1,90,71,51,30.25,29.92,19,6,26,0.00
2013-4-15,61.8,47.0,31.7,40.7,32.9,26.2,83,60,41,30.37,30.23,9,2,20,0.00
2013-4-16,61.2,53.2,45.5,55.2,45.4,32.0,95,75,58,30.31,30.02,17,6,32,0.14
2013-4-17,66.3,53.0,41.6,47.3,39.0,33.8,92,62,34,30.31,30.14,15,5,22,0.01
2013-4-18,65.4,52.8,40.2,48.8,38.7,31.4,87,60,39,30.34,30.02,16,5,29,0.00
2013-4-19,70.8,61.1,43.9,62.8,57.0,42.8,97,87,75,30.02,29.52,23,6,36,0.91
2013-4-20,53.4,43.9,33.7,42.8,35.6,25.3,98,75,44,30.33,29.72,19,7,33,0.24
2013-4-21,53.2,39.9,29.0,29.3,23.6,17.0,74,54,34,30.65,30.33,14,5,20,0.00
2013-4-22,60.5,45.5,31.7,34.5,27.3,16.5,76,51,30,30.70,30.50,14,4,22,0.00
2013-4-23,54.3,43.0,31.3,42.4,34.7,26.7,85,73,60,30.52,30.14,7,1,13,0.00
2013-4-24,74.5,55.0,36.7,52.7,45.0,35.3,96,72,43,30.14,29.69,15,3,24,0.00
2013-4-25,60.5,48.6,39.8,54.2,35.9,30.0,93,64,35,30.27,29.73,18,7,27,0.14
2013-4-26,60.5,48.1,35.8,41.4,33.8,28.7,84,59,37,30.45,30.26,13,4,20,0.00
2013-4-27,66.2,51.3,36.7,39.9,33.1,26.3,79,53,25,30.45,30.27,9,2,13,0.00
2013-4-28,75.0,58.9,43.0,45.1,38.6,33.5,74,49,28,30.30,30.10,8,2,17,0.00
2013-4-29,60.4,55.6,49.2,49.6,43.5,34.0,93,65,45,30.22,30.15,10,3,22,0.02
2013-4-30,73.0,59.9,48.8,50.2,43.0,33.1,87,56,34,30.29,30.20,13,2,17,0.00
2013-5-1,76.9,62.4,46.9,43.9,36.4,30.2,59,39,24,30.43,30.29,10,2,20,0.00
2013-5-2,81.9,65.3,49.0,50.7,44.7,38.8,80,51,27,30.44,30.24,8,1,12,0.00
2013-5-3,73.8,66.9,55.7,45.2,41.7,37.4,67,41,28,30.42,30.30,7,2,14,0.00
2013-5-4,79.4,62.3,46.5,52.4,44.9,33.4,88,57,31,30.34,30.15,0,0,0,0.00
2013-5-5,75.9,58.9,43.8,46.1,39.2,32.8,77,51,26,30.28,30.13,12,1,12,0.00
2013-5-6,77.3,60.3,44.7,51.8,43.9,31.4,88,59,19,30.24,30.07,10,2,14,0.00
2013-5-7,80.9,66.3,52.1,59.9,53.6,49.4,91,66,40,30.15,30.02,11,2,15,0.00
2013-5-8,74.0,63.6,56.9,62.3,58.7,54.8,95,85,62,30.12,29.97,11,2,21,0.09
2013-5-9,72.7,60.5,52.8,60.6,56.1,51.7,97,87,60,29.99,29.84,11,1,15,0.01
2013-5-10,77.8,65.2,52.2,61.3,55.9,51.7,100,75,47,29.97,29.81,6,1,13,0.01
2013-5-11,66.8,62.0,54.8,65.4,59.7,53.4,98,93,72,29.81,29.65,10,3,23,0.27
2013-5-12,60.1,52.5,41.7,53.1,43.9,31.2,96,75,36,29.88,29.65,18,5,26,0.00
2013-5-13,49.6,43.3,38.8,36.5,32.7,29.0,86,67,50,30.10,29.88,18,5,25,0.00
2013-5-14,59.4,47.6,37.7,39.2,34.3,30.8,86,62,37,30.12,30.01,11,3,14,0.00
2013-5-15,64.7,51.9,37.3,56.4,43.5,31.0,95,74,52,30.05,29.60,11,3,22,0.10
2013-5-16,79.2,66.5,53.1,53.6,45.5,39.6,85,49,30,29.83,29.67,18,7,26,0.00
2013-5-17,72.1,58.7,44.9,50.7,44.4,40.9,89,61,38,30.20,29.83,11,3,17,0.00
2013-5-18,72.7,60.1,47.1,52.1,46.7,41.5,84,63,37,30.30,30.20,10,2,18,0.00
2013-5-19,59.3,56.1,51.6,58.4,54.2,49.8,98,93,84,30.30,30.14,7,1,14,0.05
2013-5-20,82.5,67.0,56.2,69.8,61.7,54.8,98,85,60,30.15,29.91,7,1,13,0.00
2013-5-21,87.7,70.8,63.5,73.9,66.9,62.3,98,89,57,29.93,29.76,10,2,17,1.18
2013-5-22,77.3,68.5,61.3,73.5,67.2,61.0,100,96,84,29.88,29.76,18,2,28,1.10
2013-5-23,72.8,68.4,64.5,69.4,66.5,62.7,99,94,84,29.81,29.70,10,2,15,0.21
2013-5-24,65.4,51.9,42.8,64.9,51.6,42.5,99,99,98,29.99,29.63,14,5,24,0.74
2013-5-25,45.3,43.6,42.0,45.0,43.3,41.7,99,99,99,29.99,29.91,16,8,26,1.13
2013-5-26,54.1,47.1,41.8,49.3,44.5,41.1,99,91,76,30.14,29.87,22,7,33,0.15
2013-5-27,71.2,56.6,41.1,49.5,42.1,36.7,93,62,37,30.21,30.11,15,5,23,0.00
2013-5-28,70.4,57.9,44.5,55.6,48.0,37.1,92,71,48,30.21,30.10,10,2,17,0.00
2013-5-29,78.4,64.5,56.9,72.5,62.5,55.5,99,94,79,30.11,29.91,9,2,15,0.49
2013-5-30,84.8,77.4,72.4,71.3,67.7,66.2,81,72,61,30.05,30.02,8,1,13,0.83
2013-5-31,91.0,78.7,66.7,75.6,68.9,64.6,95,74,51,30.09,29.90,9,2,14,0.00
2013-6-1,89.2,77.7,69.0,80.5,69.5,63.4,98,77,57,29.95,29.80,13,2,23,0.47
2013-6-2,85.6,74.9,66.5,76.8,70.5,65.6,98,86,69,29.82,29.66,12,2,23,0.57
2013-6-3,70.3,63.4,52.1,65.9,58.3,40.7,99,84,59,29.93,29.78,10,4,17,0.01
2013-6-4,71.8,58.5,46.7,55.7,47.4,42.5,92,68,46,30.12,29.92,16,7,23,0.00
2013-6-5,73.0,61.6,47.8,58.3,49.4,42.9,87,66,44,30.20,30.08,8,1,12,0.00
2013-6-6,73.6,62.1,53.9,58.7,54.2,49.5,97,76,53,30.13,30.02,8,1,16,0.43
2013-6-7,59.0,56.4,54.2,58.4,55.8,53.6,99,98,97,30.02,29.78,4,1,12,0.66
2013-6-8,68.5,59.7,53.0,63.9,57.9,52.7,100,94,83,30.05,29.70,14,3,18,0.39
2013-6-9,77.1,66.0,55.6,64.8,58.3,54.2,96,78,54,30.17,30.04,14,2,20,0.00
2013-6-10,64.9,60.8,56.4,63.7,58.9,53.8,100,94,82,30.17,29.85,9,2,16,0.65
2013-6-11,70.6,62.6,58.1,68.6,61.8,57.8,100,97,89,29.85,29.55,15,3,24,0.83
2013-6-12,72.2,62.6,56.2,60.8,57.2,53.9,94,83,63,29.84,29.69,16,5,24,0.00
2013-6-13,58.5,56.2,53.0,57.3,55.0,51.6,99,96,88,29.82,29.65,6,1,12,1.31
2013-6-14,75.5,62.5,52.1,66.3,58.5,51.6,100,88,60,29.86,29.68,11,2,20,0.06
2013-6-15,75.9,64.8,53.6,60.5,53.2,45.1,98,70,37,29.98,29.86,18,4,26,0.00
2013-6-16,71.6,62.7,54.5,63.7,55.5,46.1,94,78,59,29.95,29.69,13,2,20,0.00
2013-6-17,82.9,67.1,59.5,69.9,63.1,58.6,98,88,53,29.88,29.76,22,2,37,0.26
2013-6-18,68.5,60.5,54.1,66.3,58.7,52.7,99,94,80,29.95,29.89,10,2,20,0.02
2013-6-19,73.5,60.8,48.3,58.3,51.8,47.5,98,75,45,30.17,29.94,10,2,14,0.00
2013-6-20,79.1,65.0,49.9,62.2,54.3,46.7,91,70,49,30.26,30.16,7,1,12,0.00
2013-6-21,84.6,71.3,58.2,64.9,60.1,54.5,94,70,42,30.25,30.18,7,1,12,0.00
2013-6-22,82.4,72.9,63.9,70.9,65.1,59.7,89,77,61,30.20,30.05,9,2,16,0.00
2013-6-23,88.8,78.2,69.1,78.3,69.7,64.1,88,76,59,30.11,29.95,11,3,20,0.00
2013-6-24,89.5,74.8,66.0,77.6,70.4,65.6,99,87,61,30.01,29.90,19,2,25,0.65
2013-6-25,87.7,73.3,64.3,78.3,70.3,64.0,100,91,66,29.96,29.73,21,1,34,0.25
2013-6-26,81.8,73.2,68.6,74.5,70.6,67.9,99,92,74,29.80,29.73,7,1,9,0.00
2013-6-27,83.4,74.0,65.2,75.4,70.6,64.9,100,90,70,29.80,29.56,8,1,14,0.02
2013-6-28,81.4,71.5,67.1,74.3,69.2,66.5,99,93,73,29.57,29.36,12,4,26,1.19
2013-6-29,81.4,72.0,65.2,72.4,67.8,64.9,100,88,67,29.67,29.46,11,2,28,0.00
2013-6-30,84.3,72.0,66.4,75.4,68.9,65.5,99,91,70,29.89,29.66,8,1,20,0.43
2013-7-1,77.7,71.7,67.4,76.8,71.4,67.1,100,99,93,30.00,29.89,4,1,6,0.40
2013-7-2,84.0,75.6,70.3,78.8,73.6,70.0,100,94,78,30.10,29.99,10,2,18,0.01
2013-7-3,85.1,77.2,71.8,78.7,73.8,70.7,97,89,76,30.18,30.09,8,2,16,0.00
2013-7-4,88.3,79.7,71.3,79.6,75.0,70.8,99,86,72,30.19,30.07,10,2,18,0.00
2013-7-5,89.9,81.1,73.2,81.4,75.6,72.1,97,84,69,30.15,30.00,14,2,23,0.00
2013-7-6,86.9,79.0,71.9,77.3,73.2,69.4,96,83,65,30.09,29.99,7,2,16,0.00
2013-7-7,87.4,76.3,69.5,79.8,72.6,66.8,97,89,73,30.04,29.89,6,1,13,0.04
2013-7-8,85.6,76.3,70.8,75.8,71.9,69.7,99,87,67,30.02,29.91,10,2,14,0.00
2013-7-9,87.1,75.5,69.1,77.1,71.8,68.2,100,89,61,30.06,29.95,6,1,12,0.11
2013-7-10,83.3,75.6,71.7,78.2,73.4,70.1,99,93,80,29.97,29.75,10,2,20,0.22
2013-7-11,82.5,74.2,65.9,73.4,68.8,61.9,99,84,60,29.96,29.74,12,2,18,0.00
2013-7-12,83.8,71.9,61.7,73.1,66.1,59.7,97,83,60,30.15,29.96,9,1,15,0.00
2013-7-13,80.3,72.0,64.9,74.9,68.8,61.5,98,90,77,30.27,30.15,4,1,6,0.04
2013-7-14,88.2,78.3,69.5,78.7,74.1,69.2,100,88,69,30.31,30.19,5,1,9,0.00
2013-7-15,90.5,80.6,72.4,78.8,73.7,67.9,98,81,62,30.22,30.11,12,3,16,0.00
2013-7-16,91.1,79.9,69.2,78.4,72.2,66.3,93,78,60,30.21,30.12,6,1,12,0.00
2013-7-17,92.5,81.2,69.7,79.5,73.9,68.2,96,80,59,30.19,30.00,7,1,12,0.00
2013-7-18,92.4,82.7,74.0,80.7,75.7,72.2,96,80,62,30.03,29.91,9,2,15,0.00
2013-7-19,92.8,83.2,73.8,82.0,75.2,68.0,95,78,58,29.92,29.69,13,4,20,0.00
2013-7-20,85.0,76.4,68.2,76.0,69.1,61.8,90,79,64,29.83,29.68,15,3,28,0.00
2013-7-21,83.6,72.7,64.1,71.4,65.7,60.3,91,79,63,29.96,29.84,5,1,10,0.00
2013-7-22,85.4,73.1,61.9,74.6,67.8,60.1,97,84,64,29.99,29.80,11,1,20,0.28
2013-7-23,83.0,74.1,69.9,75.7,71.9,69.6,100,93,74,29.79,29.53,9,2,13,3.03
2013-7-24,74.9,68.7,59.1,70.0,63.2,52.8,99,84,64,30.00,29.58,14,5,23,0.00
2013-7-25,73.4,62.1,50.1,64.2,56.4,48.7,98,82,67,30.09,30.00,7,2,13,0.00
2013-7-26,77.4,66.3,57.9,66.7,60.6,56.5,96,83,61,30.06,29.99,9,2,15,0.00
2013-7-27,80.7,69.8,57.7,69.8,63.3,56.0,96,81,59,30.03,29.92,8,1,16,0.00
2013-7-28,72.3,68.4,65.4,71.4,66.4,62.4,98,94,86,29.98,29.90,6,2,12,0.19
2013-7-29,80.4,70.9,62.8,69.3,64.8,56.8,99,82,61,30.10,29.93,6,2,14,0.00
2013-7-30,77.2,66.8,57.6,67.3,60.0,55.6,95,80,57,30.16,30.07,13,2,16,0.00
2013-7-31,79.4,68.8,57.4,67.4,61.1,55.5,95,78,53,30.16,30.00,5,1,8,0.00
2013-8-1,76.9,66.8,63.4,71.3,64.1,59.9,98,91,80,30.00,29.82,9,2,18,0.10
2013-8-2,81.9,69.9,62.2,68.4,63.5,60.1,100,82,55,29.86,29.79,13,3,17,0.00
2013-8-3,78.7,68.6,60.9,68.2,60.8,54.2,95,78,54,29.86,29.79,14,4,21,0.00
2013-8-4,74.4,65.6,57.4,65.7,58.1,54.1,92,77,58,29.95,29.82,20,4,28,0.00
2013-8-5,76.9,64.3,52.5,59.8,54.5,50.5,96,72,47,30.04,29.94,12,3,20,0.00
2013-8-6,79.2,66.4,52.4,62.9,55.9,49.6,91,71,47,30.11,30.04,6,1,12,0.00
2013-8-7,76.1,68.9,63.2,68.2,63.3,59.0,90,83,68,30.12,30.01,7,2,16,0.00
2013-8-8,82.5,75.1,68.1,75.2,71.0,66.6,96,87,75,30.01,29.93,8,3,18,0.00
2013-8-9,76.0,72.7,68.8,75.1,71.9,68.2,100,97,92,29.94,29.76,8,2,20,1.69
2013-8-10,76.4,68.0,59.2,68.0,59.4,48.2,98,76,45,30.06,29.85,17,7,28,0.13
2013-8-11,78.1,66.0,52.3,66.0,57.5,49.8,95,75,55,30.11,30.00,10,2,14,0.00
2013-8-12,80.0,68.8,57.6,67.9,61.8,55.6,94,79,60,30.03,29.88,6,1,12,0.00
2013-8-13,75.2,67.5,60.4,70.6,65.3,59.8,99,93,82,29.88,29.64,12,2,21,1.41
2013-8-14,69.2,60.1,52.8,61.5,56.0,51.4,98,87,70,30.00,29.76,18,6,26,0.00
2013-8-15,72.8,62.0,51.2,61.3,55.3,49.7,97,80,57,30.12,30.00,12,2,17,0.00
2013-8-16,77.4,65.0,53.5,64.6,57.7,51.8,95,78,55,30.19,30.11,6,1,12,0.00
2013-8-17,80.3,67.0,54.6,66.9,60.6,53.2,100,81,51,30.29,30.19,5,1,8,0.00
2013-8-18,72.6,65.7,58.2,68.3,62.5,56.4,97,90,81,30.27,30.09,3,0,4,0.00
2013-8-19,74.4,64.9,61.0,66.3,63.0,60.4,99,94,70,30.10,29.99,5,1,7,0.00
2013-8-20,81.5,70.7,59.0,71.7,65.1,58.4,99,83,64,30.11,30.02,6,1,12,0.00
2013-8-21,85.8,72.9,61.8,73.9,66.8,60.1,97,82,61,30.16,30.00,7,1,10,0.00
2013-8-22,85.3,74.3,65.4,75.5,69.1,63.6,97,85,64,30.02,29.80,11,2,16,0.09
2013-8-23,76.2,67.8,57.4,67.2,61.0,52.5,99,81,50,30.15,29.87,12,2,17,0.01
2013-8-24,78.9,64.0,51.3,62.9,55.6,49.9,96,76,44,30.33,30.15,7,1,13,0.00
2013-8-25,79.7,66.1,52.4,67.2,58.7,49.8,94,78,55,30.38,30.16,5,1,13,0.00
2013-8-26,74.9,67.6,62.4,69.3,64.7,59.1,99,91,78,30.16,29.87,8,1,16,0.58
2013-8-27,82.1,72.0,67.5,75.5,69.8,67.3,100,93,74,29.91,29.83,6,2,10,0.14
2013-8-28,87.7,73.5,64.6,76.7,69.2,64.0,100,88,63,29.91,29.80,6,1,12,0.00
2013-8-29,81.6,70.4,62.8,71.7,66.7,61.9,98,89,67,30.03,29.90,5,1,12,0.00
2013-8-30,83.5,72.1,64.2,74.7,68.6,63.0,97,89,72,29.99,29.79,7,1,12,0.00
2013-8-31,80.3,72.8,68.6,76.6,71.3,67.6,99,95,85,29.80,29.72,22,2,29,0.53
2013-9-1,83.6,73.3,67.4,77.6,71.6,67.4,100,95,77,29.84,29.77,5,1,7,0.23
2013-9-2,78.3,71.9,65.8,76.5,70.9,65.2,100,97,89,29.78,29.63,12,1,16,0.32
2013-9-3,73.5,66.0,60.0,68.2,63.2,57.7,100,91,67,29.87,29.72,12,3,18,0.01
2013-9-4,78.2,66.9,58.8,64.0,59.6,57.3,98,79,52,29.95,29.85,14,4,20,0.00
2013-9-5,70.7,62.8,52.1,60.9,54.9,46.4,94,76,50,30.18,29.87,11,3,17,0.00
2013-9-6,69.0,56.2,43.9,51.6,47.0,42.1,95,74,42,30.28,30.11,8,1,12,0.00
2013-9-7,73.5,60.5,49.2,62.4,54.6,46.0,95,82,58,30.11,29.85,6,1,12,0.00
2013-9-8,71.9,62.6,50.1,64.2,55.8,44.6,97,80,49,30.13,29.79,19,3,25,0.01
2013-9-9,70.7,56.7,43.3,57.0,49.8,41.2,94,79,56,30.24,30.08,7,1,15,0.00
2013-9-10,78.7,68.3,60.0,74.8,66.6,55.6,99,94,85,30.11,29.98,8,2,20,0.30
2013-9-11,91.8,78.5,68.0,82.7,74.6,67.5,99,88,71,30.06,29.91,18,3,28,0.14
2013-9-12,80.2,70.1,66.1,76.9,69.4,65.8,99,98,87,29.92,29.66,12,2,23,0.70
2013-9-13,69.3,61.6,53.0,67.2,61.1,52.7,100,98,89,29.87,29.62,8,2,15,0.29
2013-9-14,60.7,53.7,49.1,55.2,50.7,46.1,99,90,75,30.12,29.87,12,4,17,0.14
2013-9-15,68.0,55.4,43.0,58.2,50.9,41.9,98,86,67,30.20,30.06,5,1,7,0.08
2013-9-16,64.1,54.3,41.0,59.2,52.2,39.9,100,93,79,30.31,30.02,10,2,18,0.05
2013-9-17,64.5,49.6,38.5,52.9,44.8,37.7,99,85,59,30.49,30.31,9,2,14,0.04
2013-9-18,71.6,54.8,40.9,58.3,48.7,39.9,98,82,52,30.35,30.15,5,1,6,0.05
2013-9-19,77.6,60.8,47.2,62.1,53.0,45.3,94,77,50,30.17,30.05,4,1,7,0.00
2013-9-20,79.4,63.8,50.7,66.3,57.1,49.3,96,80,61,30.09,29.94,7,1,12,0.00
2013-9-21,72.2,64.6,56.9,65.9,60.7,55.6,98,88,74,29.96,29.58,15,4,24,0.08
2013-9-22,64.6,56.1,48.6,64.0,52.3,45.2,99,87,66,29.92,29.61,17,6,26,0.51
2013-9-23,62.3,50.0,41.6,50.8,44.6,40.4,96,83,60,30.09,29.92,11,4,20,0.00
2013-9-24,67.5,51.6,38.5,52.9,45.4,37.2,98,81,55,30.08,29.89,10,2,16,0.00
2013-9-25,70.2,55.8,44.2,56.8,50.0,42.9,97,82,55,29.98,29.90,6,1,12,0.00
2013-9-26,67.6,55.5,45.2,56.0,50.7,44.1,99,85,62,30.14,29.97,8,2,15,0.00
2013-9-27,60.9,52.6,43.5,55.9,50.3,42.7,99,92,78,30.29,30.14,5,1,10,0.00
2013-9-28,73.6,56.6,43.0,60.7,52.4,42.5,99,87,59,30.37,30.23,5,1,7,0.00
2013-9-29,74.0,59.6,48.6,60.7,54.4,48.1,99,85,55,30.23,30.06,6,1,9,0.00
2013-9-30,74.0,59.7,49.6,60.3,53.0,47.9,96,80,52,30.10,29.97,6,1,9,0.00
2013-10-1,77.8,61.7,48.2,64.6,55.5,47.1,98,82,61,30.02,29.89,9,2,15,0.00
2013-10-2,77.2,64.1,55.1,66.9,58.8,53.7,98,84,64,30.02,29.90,13,3,21,0.00
2013-10-3,74.1,61.7,50.4,59.2,54.6,48.6,95,79,53,30.12,30.02,5,1,12,0.00
2013-10-4,63.3,58.8,56.4,62.4,56.9,52.6,99,94,83,30.08,30.01,6,1,7,0.32
2013-10-5,64.1,58.7,55.8,61.6,57.7,55.3,99,97,89,30.11,30.04,4,1,6,0.08
2013-10-6,63.8,57.2,52.4,62.4,56.0,52.1,100,96,88,30.11,30.01,8,2,18,0.08
2013-10-7,74.1,62.8,52.6,68.8,61.1,50.9,99,94,81,30.01,29.64,25,4,32,0.47
2013-10-8,65.8,54.7,46.3,51.9,47.5,43.3,94,78,53,30.37,29.95,11,3,17,0.49
2013-10-9,66.2,50.7,39.6,52.6,44.7,38.3,97,82,53,30.48,30.34,6,1,9,0.07
2013-10-10,58.6,50.5,42.0,51.3,46.7,40.1,95,87,72,30.34,30.17,5,1,10,0.03
2013-10-11,71.4,57.5,47.4,55.3,50.0,45.6,96,78,44,30.17,30.08,5,1,12,0.02
2013-10-12,71.0,59.3,52.9,57.5,52.9,43.5,89,80,62,30.34,30.14,9,2,16,0.02
2013-10-13,70.7,58.4,50.1,54.8,50.8,47.3,92,77,53,30.42,30.30,6,1,13,0.01
2013-10-14,69.2,56.4,46.4,57.4,51.7,44.8,96,85,62,30.35,30.23,5,1,10,0.01
2013-10-15,70.5,60.6,55.0,61.0,56.8,53.6,99,88,70,30.25,30.11,4,1,13,0.02
2013-10-16,64.3,57.7,51.3,57.5,53.0,45.5,93,84,77,30.11,29.85,8,1,17,0.00
2013-10-17,71.3,62.0,56.0,60.2,55.8,51.8,97,81,54,29.89,29.60,8,2,14,0.00
2013-10-18,66.9,56.5,49.2,61.4,48.6,40.3,98,77,43,29.94,29.56,18,6,26,0.01
2013-10-19,65.0,53.7,44.8,50.2,44.4,40.9,89,72,49,29.95,29.69,10,2,20,0.01
2013-10-20,62.1,51.8,44.5,50.9,40.8,36.9,92,67,44,30.03,29.69,16,4,22,0.01
2013-10-21,67.3,54.0,43.6,48.5,41.9,38.4,82,65,43,30.11,29.90,9,2,20,0.00
2013-10-22,53.2,49.8,42.3,50.4,44.1,34.8,98,81,70,29.90,29.76,8,2,21,0.03
2013-10-23,54.7,44.4,36.7,39.8,35.9,32.6,86,73,51,29.83,29.63,15,2,20,0.00
2013-10-24,51.3,41.9,32.3,37.8,33.5,29.4,95,74,45,29.94,29.73,17,5,26,0.00
2013-10-25,48.9,41.2,36.6,37.7,34.9,32.9,94,79,58,30.17,29.94,14,5,23,0.01
2013-10-26,50.3,43.0,34.8,36.6,33.9,31.8,92,72,51,30.16,29.83,13,3,24,0.00
2013-10-27,51.5,45.1,37.5,38.0,35.5,32.9,88,70,51,30.08,29.80,22,5,31,0.00
2013-10-28,57.8,42.9,34.4,40.7,33.8,24.9,90,72,44,30.37,30.07,17,4,23,0.00
2013-10-29,48.8,36.4,26.5,31.6,25.8,23.0,90,67,44,30.48,30.34,8,1,13,0.00
2013-10-30,54.5,42.0,35.5,43.1,35.4,24.3,92,78,63,30.34,30.20,4,1,12,0.02
2013-10-31,60.3,51.0,39.9,59.3,49.8,37.5,99,96,86,30.23,29.66,12,3,22,0.26
2013-11-1,68.3,61.4,51.4,62.8,55.8,43.7,97,83,52,29.70,29.40,19,7,34,0.13
2013-11-2,62.0,50.3,40.9,50.4,44.7,37.9,94,82,56,29.82,29.60,11,2,20,0.03
2013-11-3,43.9,36.4,25.7,37.8,28.2,19.5,89,72,55,30.48,29.82,12,4,20,0.01
2013-11-4,44.0,31.9,22.3,26.2,21.6,18.7,88,67,44,30.69,30.48,8,1,15,0.00
2013-11-5,54.7,42.1,30.1,41.0,31.7,20.9,79,66,56,30.67,30.45,9,1,20,0.00
2013-11-6,59.8,51.5,44.8,49.4,45.1,40.1,90,79,65,30.45,29.94,13,4,25,0.00
2013-11-7,56.3,48.2,38.9,53.2,44.8,35.6,97,88,78,29.94,29.77,15,6,29,0.57
2013-11-8,44.8,38.1,32.5,36.5,32.5,27.9,91,81,56,30.16,29.88,23,9,32,0.00
2013-11-9,44.1,37.4,30.5,34.9,29.6,24.6,92,74,62,30.25,29.93,8,2,17,0.00
2013-11-10,48.7,43.8,38.8,39.3,35.6,31.8,90,73,61,30.01,29.77,23,6,33,0.01
2013-11-11,49.1,42.8,36.6,35.4,32.4,29.0,82,67,55,30.17,29.91,17,5,29,0.00
2013-11-12,45.6,31.4,25.9,36.3,23.9,18.7,92,74,59,30.28,29.92,20,8,29,0.00
2013-11-13,36.1,28.0,20.1,21.1,17.8,14.3,79,66,44,30.38,30.17,14,4,21,0.00
2013-11-14,52.2,38.6,28.0,29.0,23.1,19.1,74,55,38,30.17,30.08,10,2,15,0.00
2013-11-15,56.6,45.6,38.1,30.0,23.2,18.6,47,41,30,30.20,30.10,5,1,13,0.00
2013-11-16,61.2,50.4,43.7,41.3,33.5,25.0,75,53,41,30.31,30.18,4,1,12,0.00
2013-11-17,59.9,53.0,47.4,57.3,50.4,40.2,98,91,74,30.24,29.68,12,2,22,0.02
2013-11-18,62.5,55.2,41.0,59.0,43.9,31.6,97,68,39,29.76,29.47,21,9,37,0.20
2013-11-19,42.6,35.6,27.4,31.5,24.8,19.8,78,65,52,30.39,29.76,20,10,33,0.00
2013-11-20,39.7,28.9,21.3,23.7,19.6,16.7,85,69,49,30.64,30.39,7,1,12,0.00
2013-11-21,46.3,34.6,21.1,34.7,25.9,17.0,85,71,50,30.65,30.36,10,1,20,0.00
2013-11-22,46.3,43.8,41.7,45.8,42.3,34.6,100,94,75,30.36,29.88,18,1,31,0.09
2013-11-23,44.6,33.6,22.5,39.4,26.7,16.1,91,76,51,30.04,29.86,25,11,33,0.00
2013-11-24,27.1,19.8,14.1,16.4,9.2,5.4,81,64,45,30.33,29.94,23,11,34,0.00
2013-11-25,33.5,23.7,12.7,19.0,12.8,5.1,76,63,53,30.45,30.23,10,2,25,0.00
2013-11-26,34.5,31.4,26.7,32.7,27.2,16.8,97,85,56,30.31,29.92,12,1,21,0.26
2013-11-27,45.8,34.6,30.1,45.5,34.1,28.6,99,98,94,29.92,29.41,22,6,31,1.19
2013-11-28,30.0,24.3,19.7,28.5,17.8,13.7,94,76,59,30.47,29.64,27,10,39,0.00
2013-11-29,33.0,23.8,18.1,21.0,17.1,12.7,90,76,55,30.77,30.47,13,2,17,0.04
2013-11-30,31.8,25.1,11.5,22.6,15.8,8.4,90,68,51,30.80,30.36,7,1,15,0.00
2013-12-1,40.0,34.8,29.5,33.7,30.6,22.6,92,85,75,30.36,30.02,3,0,13,0.00
2013-12-2,39.7,34.7,31.5,36.0,32.4,29.7,96,91,85,30.02,29.90,4,0,7,0.00
2013-12-3,42.1,34.8,29.4,39.4,31.9,28.1,98,89,79,30.01,29.91,8,1,16,0.01
2013-12-4,44.6,33.9,28.0,34.9,29.8,26.5,95,85,65,30.16,30.01,4,0,6,0.00
2013-12-5,55.1,47.4,32.7,53.2,45.4,30.0,98,93,87,30.15,29.88,13,3,23,0.04
2013-12-6,53.4,39.0,31.9,52.6,37.3,30.9,98,94,85,30.19,29.89,10,4,22,0.20
2013-12-7,36.8,31.9,27.7,31.4,28.5,21.0,97,88,67,30.50,30.14,7,1,14,0.09
2013-12-8,30.7,27.0,23.2,24.7,21.9,19.6,92,81,71,30.61,30.44,0,0,0,0.00
2013-12-9,34.6,31.0,26.2,33.3,28.9,21.9,97,92,77,30.44,29.92,0,0,0,0.01
2013-12-10,34.4,28.6,21.1,32.5,25.5,17.3,97,88,75,30.03,29.86,5,0,5,0.00
2013-12-11,30.6,25.1,21.6,22.1,18.7,14.9,92,77,58,30.24,30.03,0,0,0,0.00
2013-12-12,24.2,18.7,14.6,18.1,9.7,4.2,90,68,49,30.35,30.06,0,0,0,0.00
2013-12-13,26.5,21.3,14.7,22.9,13.9,8.2,91,73,63,30.42,30.00,0,0,0,0.00
2013-12-14,14.6,11.0,8.6,9.5,6.2,2.2,90,81,72,30.60,30.05,0,0,0,0.00
2013-12-15,31.3,21.2,10.1,28.5,18.6,7.8,95,90,82,30.05,29.57,0,0,0,0.00
2013-12-16,25.6,19.4,9.1,23.2,13.0,5.5,94,76,63,30.24,29.76,0,0,0,0.01
2013-12-17,13.1,8.6,2.0,11.0,5.8,-1.5,91,88,84,30.25,30.01,0,0,0,0.00
2013-12-18,28.9,19.9,10.7,24.9,17.1,8.6,93,89,82,30.10,29.99,0,0,0,0.00
2013-12-19,39.9,32.0,25.4,28.2,25.0,21.9,92,76,60,30.11,29.97,0,0,0,0.13
2013-12-20,46.1,41.8,34.8,38.4,33.5,27.7,85,72,66,30.09,29.90,0,0,0,0.31
2013-12-21,51.4,47.7,44.8,49.4,41.6,34.2,95,80,63,29.92,29.82,6,1,15,0.11
2013-12-22,63.5,52.1,32.4,59.7,49.8,31.6,100,92,83,29.94,29.62,14,4,24,0.02
2013-12-23,48.7,40.9,32.8,45.9,39.0,28.7,98,93,81,30.19,29.91,15,3,25,0.26
2013-12-24,32.8,26.4,17.5,29.6,20.4,11.8,95,78,66,30.35,30.13,18,5,26,0.00
2013-12-25,22.5,15.8,8.7,13.2,8.1,3.8,82,71,58,30.57,30.34,16,2,25,0.00
2013-12-26,29.5,26.5,22.6,25.9,21.3,12.9,91,80,65,30.40,30.12,9,2,21,0.00
2013-12-27,33.2,29.1,24.2,26.3,22.4,19.0,83,76,67,30.31,30.23,9,2,13,0.00
2013-12-28,46.7,35.1,27.4,33.7,28.3,23.1,87,77,59,30.23,30.02,15,2,20,0.00
2013-12-29,43.5,37.8,32.9,37.8,32.6,29.2,97,82,65,30.03,29.56,7,2,14,0.83
2013-12-30,36.1,24.4,11.2,35.6,19.6,6.8,98,82,64,30.24,29.65,21,7,32,0.01
2013-12-31,22.7,16.2,8.2,19.3,11.2,5.4,92,81,60,30.24,30.03,21,3,29,0.00
2014-1-1,24.2,18.9,15.6,15.7,11.5,7.1,88,73,62,30.39,30.23,13,2,16,0.00
2014-1-2,17.5,4.3,-2.4,14.6,1.3,-5.8,98,87,85,30.34,29.92,6,2,15,0.00